This is the latest recevied weather packets stored in our database for station/object AA7VG. If no packets are shown the sender has not sent any weather packets the latest 10 day(s).
| Time | Temp. | Humidity | Pressure | Rain* | Wind** | Luminosity | Snow |
|---|---|---|---|---|---|---|---|
| 1787845288 | 21.11° C | 45% | 1019.3 hPa | 0 mm | - | - | - |
| 1787844984 | 21.11° C | 46% | 1019.5 hPa | 0 mm | - | - | - |
| 1787844679 | 21.11° C | 47% | 1019.6 hPa | 0 mm | - | - | - |
| 1787844379 | 20° C | 48% | 1019.4 hPa | 0 mm | - | - | - |
| 1787844078 | 20° C | 49% | 1019.4 hPa | 0 mm | - | - | - |
| 1787843773 | 20° C | 48% | 1019.5 hPa | 0 mm | - | - | - |
| 1787843469 | 20.56° C | 49% | 1019.6 hPa | 0 mm | - | - | - |
| 1787843171 | 20° C | 50% | 1020.1 hPa | 0 mm | - | - | - |
| 1787842865 | 19.44° C | 50% | 1019.7 hPa | 0 mm | - | - | - |
| 1787842560 | 18.89° C | 49% | 1020 hPa | 0 mm | - | - | - |
| 1787842259 | 18.89° C | 51% | 1020.1 hPa | 0 mm | - | - | - |
| 1787841954 | 18.33° C | 54% | 1020.1 hPa | 0 mm | - | - | - |
| 1787841650 | 18.33° C | 55% | 1020 hPa | 0 mm | - | - | - |
| 1787841349 | 16.67° C | 59% | 1020 hPa | 0 mm | - | - | - |
| 1787841044 | 16.67° C | 60% | 1020 hPa | 0 mm | - | - | - |
| 1787840740 | 15.56° C | 64% | 1020.1 hPa | 0 mm | - | - | - |
| 1787840435 | 15.56° C | 64% | 1020 hPa | 0 mm | - | - | - |
| 1787840130 | 15.56° C | 65% | 1020.2 hPa | 0 mm | - | - | - |
| 1787839829 | 15° C | 67% | 1020.4 hPa | 0 mm | - | - | - |
| 1787839525 | 15° C | 66% | 1020.1 hPa | 0 mm | - | - | - |
| 1787839224 | 15° C | 65% | 1020.1 hPa | 0 mm | - | - | - |
| 1787838924 | 14.44° C | 67% | 1020.3 hPa | 0 mm | - | - | - |
| 1787838618 | 14.44° C | 67% | 1020.3 hPa | 0 mm | - | - | - |
| 1787838317 | 13.33° C | 69% | 1020 hPa | 0 mm | - | - | - |
| 1787838016 | 13.33° C | 69% | 1020 hPa | 0 mm | - | - | - |
* Rain latest hour (hover to see other rain measurements)
** Current wind speed in m/s (hover to see current wind gust speed)